createdAt,value
2018-04-10T00:01:00.700Z,25.13
2018-04-10T00:03:28.190Z,23.27
2018-04-10T00:05:56.423Z,23.67
2018-04-10T00:08:23.889Z,23.63
2018-04-10T00:10:52.045Z,21.80
2018-04-10T00:13:19.516Z,23.20
2018-04-10T00:15:46.985Z,22.40
2018-04-10T00:18:14.455Z,22.73
2018-04-10T00:20:42.687Z,22.47
2018-04-10T00:23:10.162Z,23.77
2018-04-10T00:25:37.623Z,22.53
2018-04-10T00:28:05.076Z,23.20
2018-04-10T00:30:32.549Z,22.63
2018-04-10T00:33:00.027Z,22.83
2018-04-10T00:35:28.238Z,23.30
2018-04-10T00:37:55.734Z,24.70
2018-04-10T00:40:23.215Z,23.97
2018-04-10T00:42:51.437Z,24.20
2018-04-10T00:45:18.900Z,25.10
2018-04-10T00:47:46.381Z,24.67
2018-04-10T00:50:13.847Z,25.00
2018-04-10T00:52:42.093Z,24.83
2018-04-10T00:55:09.676Z,24.97
2018-04-10T00:57:37.220Z,25.63
2018-04-10T01:00:04.789Z,24.47
2018-04-10T01:02:32.358Z,25.90
2018-04-10T01:04:59.833Z,26.37
2018-04-10T01:07:28.041Z,26.07
2018-04-10T01:09:55.523Z,26.93
2018-04-10T01:12:22.991Z,26.77
2018-04-10T01:14:50.456Z,26.60
2018-04-10T01:17:17.918Z,26.53
2018-04-10T01:19:46.138Z,24.77
2018-04-10T01:22:13.619Z,26.00
2018-04-10T01:24:41.070Z,26.77
2018-04-10T01:27:08.547Z,25.80
2018-04-10T01:29:35.989Z,27.43
2018-04-10T01:32:03.455Z,26.50
2018-04-10T01:34:30.924Z,25.40
2018-04-10T01:36:58.393Z,23.87
2018-04-10T01:39:26.620Z,25.40
2018-04-10T01:41:55.017Z,24.70
2018-04-10T01:44:22.574Z,25.50
2018-04-10T01:46:50.021Z,25.50
2018-04-10T01:49:24.489Z,26.00
2018-04-10T01:51:52.745Z,26.27
2018-04-10T01:54:20.210Z,25.60
2018-04-10T01:56:48.447Z,24.63
2018-04-10T01:59:15.896Z,25.77
2018-04-10T02:01:43.475Z,26.03
2018-04-10T02:04:10.924Z,26.27
2018-04-10T02:06:38.387Z,25.03
2018-04-10T02:09:06.074Z,25.00
2018-04-10T02:11:35.017Z,26.43
2018-04-10T02:14:02.486Z,26.90
2018-04-10T02:16:29.939Z,24.53
2018-04-10T02:18:57.416Z,24.53
2018-04-10T02:21:24.904Z,24.60
2018-04-10T02:23:53.115Z,26.43
2018-04-10T02:26:20.580Z,25.43
2018-04-10T02:28:48.054Z,23.53
2018-04-10T02:31:15.526Z,22.97
2018-04-10T02:33:43.003Z,23.43
2018-04-10T02:36:11.225Z,24.90
2018-04-10T02:38:39.342Z,25.70
2018-04-10T02:41:06.790Z,25.07
2018-04-10T02:43:34.251Z,24.40
2018-04-10T02:46:01.728Z,27.23
2018-04-10T02:48:29.967Z,26.13
2018-04-10T02:50:57.488Z,26.73
2018-04-10T02:53:24.954Z,24.67
2018-04-10T02:55:52.423Z,25.50
2018-04-10T02:58:19.900Z,26.57
2018-04-10T03:00:47.349Z,24.73
2018-04-10T03:03:14.861Z,25.83
2018-04-10T03:05:43.770Z,26.67
2018-04-10T03:08:11.242Z,24.57
2018-04-10T03:10:38.678Z,24.53
2018-04-10T03:13:06.140Z,25.90
2018-04-10T03:15:33.617Z,26.07
2018-04-10T03:18:01.076Z,26.10
2018-04-10T03:20:28.531Z,24.13
2018-04-10T03:22:55.989Z,25.27
2018-04-10T03:25:23.464Z,25.53
2018-04-10T03:27:50.931Z,23.80
2018-04-10T03:30:18.407Z,25.03
2018-04-10T03:32:46.785Z,24.30
2018-04-10T03:35:15.087Z,24.23
2018-04-10T03:37:42.518Z,24.20
2018-04-10T03:40:10.759Z,24.00
2018-04-10T03:42:38.321Z,23.60
2018-04-10T03:45:05.887Z,25.07
2018-04-10T03:47:33.395Z,25.53
2018-04-10T03:50:00.853Z,25.13
2018-04-10T03:52:28.300Z,24.07
2018-04-10T03:54:55.765Z,24.60
2018-04-10T03:57:23.235Z,24.07
2018-04-10T03:59:50.694Z,23.93
2018-04-10T04:02:18.169Z,26.10
2018-04-10T04:04:45.719Z,25.83
2018-04-10T04:07:13.214Z,26.83
2018-04-10T04:09:41.463Z,27.37
2018-04-10T04:12:08.909Z,26.87
2018-04-10T04:14:36.497Z,25.77
2018-04-10T04:17:15.983Z,24.00
2018-04-10T04:19:55.473Z,24.37
2018-04-10T04:22:35.713Z,23.70
2018-04-10T04:25:03.180Z,23.80
2018-04-10T04:27:30.642Z,23.83
2018-04-10T04:29:58.124Z,24.00
2018-04-10T04:32:26.380Z,24.50
2018-04-10T04:34:53.930Z,24.07
2018-04-10T04:37:21.413Z,24.23
2018-04-10T04:39:49.661Z,24.87
2018-04-10T04:42:17.126Z,22.40
2018-04-10T04:44:44.638Z,24.47
2018-04-10T04:47:12.243Z,23.90
2018-04-10T04:49:41.236Z,22.37
2018-04-10T04:52:08.781Z,24.50
2018-04-10T04:54:36.246Z,24.07
2018-04-10T04:57:03.697Z,24.13
2018-04-10T04:59:31.148Z,25.70
2018-04-10T05:01:58.696Z,26.20
2018-04-10T05:04:26.160Z,26.33
2018-04-10T05:06:53.637Z,27.10
2018-04-10T05:09:21.112Z,27.03
2018-04-10T05:11:49.347Z,26.97
2018-04-10T05:14:16.796Z,24.87
2018-04-10T05:16:44.272Z,23.30
2018-04-10T05:19:11.756Z,23.00
2018-04-10T05:21:39.986Z,23.33
2018-04-10T05:24:07.438Z,22.53
2018-04-10T05:26:34.926Z,23.47
2018-04-10T05:29:02.375Z,22.77
2018-04-10T05:31:29.828Z,21.43
2018-04-10T05:33:57.306Z,23.53
2018-04-10T05:36:25.537Z,22.43
2018-04-10T05:38:52.997Z,22.30
2018-04-10T05:41:20.455Z,23.40
2018-04-10T05:43:47.953Z,22.83
2018-04-10T05:46:15.416Z,24.37
2018-04-10T05:48:43.651Z,22.27
2018-04-10T05:51:11.134Z,21.50
2018-04-10T05:53:38.602Z,21.73
2018-04-10T05:56:06.839Z,21.77
2018-04-10T05:58:34.305Z,22.90
2018-04-10T06:01:01.777Z,23.43
2018-04-10T06:03:29.277Z,22.40
2018-04-10T06:05:56.756Z,23.47
2018-04-10T06:08:24.206Z,23.40
2018-04-10T06:10:51.671Z,21.77
2018-04-10T06:13:19.908Z,21.57
2018-04-10T06:15:47.380Z,20.97
2018-04-10T06:18:15.583Z,20.83
2018-04-10T06:20:43.073Z,19.47
2018-04-10T06:23:10.541Z,20.37
2018-04-10T06:25:38.799Z,19.37
2018-04-10T06:28:06.278Z,18.10
2018-04-10T06:30:33.746Z,19.13
2018-04-10T06:33:01.223Z,19.37
2018-04-10T06:35:28.712Z,19.37
2018-04-10T06:37:56.163Z,18.33
2018-04-10T06:40:23.625Z,18.37
2018-04-10T06:42:51.085Z,18.77
2018-04-10T06:45:18.553Z,17.80
2018-04-10T06:47:46.043Z,18.57
2018-04-10T06:50:13.519Z,19.73
2018-04-10T06:52:41.712Z,19.33
2018-04-10T06:55:09.248Z,19.63
2018-04-10T06:57:36.728Z,18.93
2018-04-10T07:00:04.191Z,20.70
2018-04-10T07:02:31.667Z,18.43
2018-04-10T07:04:59.141Z,18.03
2018-04-10T07:07:27.395Z,20.07
2018-04-10T07:09:54.877Z,18.80
2018-04-10T07:12:23.115Z,19.27
2018-04-10T07:14:50.569Z,19.10
2018-04-10T07:17:18.053Z,16.87
2018-04-10T07:19:45.505Z,16.33
2018-04-10T07:22:12.979Z,16.83
2018-04-10T07:24:41.215Z,16.80
2018-04-10T07:27:08.671Z,16.77
2018-04-10T07:29:36.131Z,16.00
2018-04-10T07:32:03.612Z,15.97
2018-04-10T07:34:31.082Z,15.17
2018-04-10T07:36:59.308Z,14.63
2018-04-10T07:39:26.766Z,14.67
2018-04-10T07:41:54.895Z,13.83
2018-04-10T07:44:23.103Z,13.23
2018-04-10T07:46:50.560Z,13.57
2018-04-10T07:49:18.011Z,15.00
2018-04-10T07:51:45.507Z,12.53
2018-04-10T07:54:12.949Z,12.57
2018-04-10T07:56:40.418Z,11.37
2018-04-10T07:59:07.878Z,11.17
2018-04-10T08:01:35.338Z,11.07
2018-04-10T08:04:02.825Z,10.13
2018-04-10T08:06:31.047Z,10.67
2018-04-10T08:08:58.499Z,11.00
2018-04-10T08:11:25.997Z,11.33
2018-04-10T08:13:54.208Z,9.53
2018-04-10T08:16:21.659Z,9.93
2018-04-10T08:18:49.137Z,9.07
2018-04-10T08:21:16.609Z,8.63
2018-04-10T08:23:44.076Z,8.73
2018-04-10T08:26:11.542Z,8.37
2018-04-10T08:28:39.021Z,8.13
2018-04-10T08:31:07.231Z,8.20
2018-04-10T08:33:34.685Z,7.47
2018-04-10T08:36:02.150Z,8.33
2018-04-10T08:38:29.599Z,8.77
2018-04-10T08:40:57.093Z,7.17
2018-04-10T08:43:24.566Z,6.87
2018-04-10T08:45:52.027Z,5.03
2018-04-10T08:48:20.268Z,4.97
2018-04-10T08:50:47.722Z,3.87
2018-04-10T08:53:15.159Z,4.37
2018-04-10T08:55:42.651Z,3.97
2018-04-10T08:58:10.086Z,3.57
2018-04-10T09:00:37.533Z,3.43
2018-04-10T09:03:04.976Z,4.00
2018-04-10T09:05:32.434Z,3.47
2018-04-10T09:07:59.911Z,4.00
2018-04-10T09:10:27.376Z,3.80
2018-04-10T09:12:54.840Z,3.90
2018-04-10T09:15:22.314Z,3.60
2018-04-10T09:17:49.823Z,3.90
2018-04-10T09:20:17.297Z,3.57
2018-04-10T09:22:45.596Z,3.03
2018-04-10T09:25:13.075Z,3.40
2018-04-10T09:27:41.274Z,3.80
2018-04-10T09:30:08.760Z,2.53
2018-04-10T09:32:36.219Z,3.33
2018-04-10T09:35:03.755Z,2.47
2018-04-10T09:37:31.194Z,2.60
2018-04-10T09:39:58.667Z,2.20
2018-04-10T09:42:26.140Z,1.90
2018-04-10T09:44:53.584Z,2.00
2018-04-10T09:47:21.032Z,1.90
2018-04-10T09:49:48.470Z,1.90
2018-04-10T09:52:16.723Z,2.17
2018-04-10T09:54:44.262Z,2.40
2018-04-10T09:57:11.722Z,1.93
2018-04-10T09:59:39.248Z,1.90
2018-04-10T10:02:06.703Z,2.17
2018-04-10T10:04:34.154Z,2.83
2018-04-10T10:07:01.617Z,2.60
2018-04-10T10:09:29.086Z,2.40
2018-04-10T10:11:56.548Z,2.20
2018-04-10T10:14:25.024Z,2.50
2018-04-10T10:16:52.483Z,2.73
2018-04-10T10:19:19.925Z,2.43
2018-04-10T10:21:47.367Z,2.70
2018-04-10T10:24:14.840Z,2.37
2018-04-10T10:26:42.329Z,2.43
2018-04-10T10:29:09.766Z,2.87
2018-04-10T10:31:37.245Z,2.50
2018-04-10T10:34:04.716Z,2.90
2018-04-10T10:36:32.155Z,2.57
2018-04-10T10:38:59.616Z,2.90
2018-04-10T10:41:27.121Z,2.50
2018-04-10T10:43:54.634Z,3.10
2018-04-10T10:46:22.970Z,2.60
2018-04-10T10:48:50.419Z,3.30
2018-04-10T10:51:17.864Z,3.10
2018-04-10T10:53:45.333Z,3.13
2018-04-10T10:56:12.811Z,2.87
2018-04-10T10:58:40.269Z,3.00
2018-04-10T11:01:07.724Z,3.27
2018-04-10T11:03:35.223Z,2.90
2018-04-10T11:06:02.707Z,2.70
2018-04-10T11:08:30.197Z,3.30
2018-04-10T11:10:57.741Z,2.70
2018-04-10T11:13:25.241Z,2.80
2018-04-10T11:15:52.747Z,3.17
2018-04-10T11:18:20.280Z,3.77
2018-04-10T11:20:48.551Z,3.43
2018-04-10T11:23:16.827Z,3.23
2018-04-10T11:25:45.089Z,3.43
2018-04-10T11:28:12.602Z,3.30
2018-04-10T11:30:40.124Z,3.03
2018-04-10T11:33:08.415Z,3.23
2018-04-10T11:35:36.644Z,4.43
2018-04-10T11:38:04.125Z,3.40
2018-04-10T11:40:31.589Z,3.60
2018-04-10T11:42:59.901Z,3.37
2018-04-10T11:45:27.420Z,4.10
2018-04-10T11:47:55.724Z,3.80
2018-04-10T11:50:23.204Z,3.53
2018-04-10T11:52:50.678Z,3.90
2018-04-10T11:55:18.222Z,3.55
2018-04-10T11:57:45.741Z,3.45
2018-04-10T12:00:13.269Z,3.80
2018-04-10T12:02:40.738Z,3.30
2018-04-10T12:05:08.220Z,3.30
2018-04-10T12:07:35.758Z,3.17
2018-04-10T12:10:04.127Z,3.65
2018-04-10T12:12:31.718Z,2.78
2018-04-10T12:14:59.185Z,2.70
2018-04-10T12:17:26.647Z,3.30
2018-04-10T12:19:54.150Z,3.15
2018-04-10T12:22:22.381Z,3.83
2018-04-10T12:24:49.941Z,3.10
2018-04-10T12:27:17.452Z,3.05
2018-04-10T12:29:44.994Z,6.05
2018-04-10T12:32:12.463Z,3.62
2018-04-10T12:34:39.956Z,2.97
2018-04-10T12:37:07.424Z,2.50
2018-04-10T12:39:34.871Z,2.50
2018-04-10T12:42:02.360Z,2.55
2018-04-10T12:44:29.850Z,2.75
2018-04-10T12:46:57.343Z,2.47
2018-04-10T12:49:24.914Z,5.93
2018-04-10T12:51:52.433Z,3.45
2018-04-10T12:54:20.705Z,3.40
2018-04-10T12:56:48.994Z,3.30
2018-04-10T12:59:17.230Z,3.03
2018-04-10T13:01:44.675Z,2.62
2018-04-10T13:04:12.142Z,3.50
2018-04-10T13:06:39.633Z,3.67
2018-04-10T13:09:07.848Z,3.80
2018-04-10T13:11:35.317Z,4.85
2018-04-10T13:14:02.810Z,4.43
2018-04-10T13:16:30.255Z,4.47
2018-04-10T13:18:57.719Z,5.00
2018-04-10T13:21:25.187Z,4.03
2018-04-10T13:23:53.428Z,4.30
2018-04-10T13:26:20.882Z,4.32
2018-04-10T13:28:48.356Z,3.17
2018-04-10T13:31:15.810Z,2.62
2018-04-10T13:33:43.265Z,2.90
2018-04-10T13:36:10.708Z,7.47
2018-04-10T13:38:38.276Z,3.45
2018-04-10T13:41:05.735Z,3.67
2018-04-10T13:43:33.217Z,3.45
2018-04-10T13:46:00.733Z,4.12
2018-04-10T13:48:28.297Z,3.85
2018-04-10T13:50:55.839Z,3.40
2018-04-10T13:53:23.377Z,3.42
2018-04-10T13:55:50.967Z,3.12
2018-04-10T13:58:18.487Z,2.90
2018-04-10T14:00:45.979Z,2.22
2018-04-10T14:03:13.426Z,2.10
2018-04-10T14:05:40.881Z,1.80
2018-04-10T14:08:08.310Z,1.50
2018-04-10T14:10:36.555Z,1.33
2018-04-10T14:13:04.011Z,1.65
2018-04-10T14:15:31.482Z,1.30
2018-04-10T14:17:59.005Z,1.33
2018-04-10T14:20:26.473Z,1.30
2018-04-10T14:22:53.927Z,1.45
2018-04-10T14:25:21.401Z,1.37
2018-04-10T14:27:48.851Z,1.40
2018-04-10T14:30:16.327Z,3.50
2018-04-10T14:32:43.771Z,3.72
2018-04-10T14:35:11.249Z,2.42
2018-04-10T14:37:38.695Z,2.23
2018-04-10T14:40:06.176Z,2.23
2018-04-10T14:42:34.387Z,3.27
2018-04-10T14:45:01.836Z,3.30
2018-04-10T14:47:29.333Z,2.43
2018-04-10T14:49:56.765Z,3.40
2018-04-10T14:52:24.244Z,2.77
2018-04-10T14:54:51.684Z,2.57
2018-04-10T14:57:19.125Z,2.40
2018-04-10T14:59:46.597Z,2.63
2018-04-10T15:02:14.022Z,2.80
2018-04-10T15:04:41.486Z,3.20
2018-04-10T15:07:08.948Z,9.27
2018-04-10T15:09:36.405Z,5.30
2018-04-10T15:12:03.850Z,3.10
2018-04-10T15:14:31.321Z,3.00
2018-04-10T15:16:58.783Z,2.77
2018-04-10T15:19:27.000Z,2.87
2018-04-10T15:21:55.251Z,2.60
2018-04-10T15:24:22.687Z,3.07
2018-04-10T15:26:50.143Z,2.37
2018-04-10T15:29:18.097Z,2.60
2018-04-10T15:31:45.599Z,2.47
2018-04-10T15:34:13.077Z,2.53
2018-04-10T15:36:41.282Z,2.77
2018-04-10T15:39:08.762Z,3.90
2018-04-10T15:41:36.223Z,3.27
2018-04-10T15:44:03.678Z,2.43
2018-04-10T15:46:31.161Z,2.37
2018-04-10T15:48:58.596Z,2.77
2018-04-10T15:51:26.050Z,8.90
2018-04-10T15:53:53.508Z,3.77
2018-04-10T15:56:20.997Z,3.53
2018-04-10T15:58:48.423Z,2.97
2018-04-10T16:01:15.890Z,3.93
2018-04-10T16:03:43.341Z,3.43
2018-04-10T16:06:10.864Z,4.17
2018-04-10T16:08:38.290Z,2.63
2018-04-10T16:11:06.502Z,2.20
2018-04-10T16:13:33.972Z,2.27
2018-04-10T16:16:01.418Z,1.80
2018-04-10T16:18:28.904Z,2.43
2018-04-10T16:20:56.354Z,2.50
2018-04-10T16:23:23.809Z,2.90
2018-04-10T16:25:51.273Z,2.47
2018-04-10T16:28:18.738Z,2.87
2018-04-10T16:30:46.211Z,3.37
2018-04-10T16:33:14.426Z,3.43
2018-04-10T16:35:41.878Z,3.57
2018-04-10T16:38:09.348Z,4.47
2018-04-10T16:40:36.842Z,3.90
2018-04-10T16:43:04.288Z,9.10
2018-04-10T16:45:31.774Z,4.90
2018-04-10T16:48:00.027Z,4.93
2018-04-10T16:50:27.490Z,4.80
2018-04-10T16:52:54.970Z,5.50
2018-04-10T16:55:22.434Z,5.37
2018-04-10T16:57:50.687Z,6.00
2018-04-10T17:00:18.943Z,5.73
2018-04-10T17:02:46.470Z,6.03
2018-04-10T17:05:13.921Z,5.90
2018-04-10T17:07:41.389Z,6.10
2018-04-10T17:10:08.867Z,7.10
2018-04-10T17:12:36.375Z,9.00
2018-04-10T17:15:03.807Z,10.80
2018-04-10T17:17:32.092Z,9.50
2018-04-10T17:20:00.334Z,9.70
2018-04-10T17:22:27.812Z,9.57
2018-04-10T17:24:55.361Z,8.20
2018-04-10T17:27:22.859Z,7.33
2018-04-10T17:29:51.067Z,6.60
2018-04-10T17:32:18.519Z,5.80
2018-04-10T17:34:45.966Z,6.23
2018-04-10T17:37:13.455Z,4.83
2018-04-10T17:39:40.915Z,4.57
2018-04-10T17:42:08.376Z,4.00
2018-04-10T17:44:35.853Z,5.63
2018-04-10T17:47:04.065Z,5.50
2018-04-10T17:49:32.078Z,3.77
2018-04-10T17:51:59.598Z,3.30
2018-04-10T17:54:30.015Z,4.00
2018-04-10T17:56:57.466Z,4.50
2018-04-10T17:59:24.950Z,3.83
2018-04-10T18:01:52.422Z,3.97
2018-04-10T18:04:19.901Z,4.33
2018-04-10T18:06:48.166Z,4.57
2018-04-10T18:09:15.706Z,5.10
2018-04-10T18:11:43.150Z,5.90
2018-04-10T18:14:10.597Z,5.20
2018-04-10T18:16:38.114Z,4.70
2018-04-10T18:19:06.341Z,4.47
2018-04-10T18:21:33.818Z,4.40
2018-04-10T18:24:01.290Z,4.13
2018-04-10T18:26:29.562Z,4.20
2018-04-10T18:28:57.047Z,4.17
2018-04-10T18:31:25.282Z,4.70
2018-04-10T18:33:52.724Z,4.27
2018-04-10T18:36:20.233Z,4.57
2018-04-10T18:38:48.474Z,4.50
2018-04-10T18:41:15.929Z,5.63
2018-04-10T18:43:43.372Z,5.03
2018-04-10T18:46:10.867Z,5.43
2018-04-10T18:48:39.164Z,5.37
2018-04-10T18:51:06.684Z,5.63
2018-04-10T18:53:34.286Z,5.90
2018-04-10T18:56:01.923Z,5.97
2018-04-10T18:58:29.382Z,6.67
2018-04-10T19:00:57.696Z,5.97
2018-04-10T19:03:25.251Z,5.13
2018-04-10T19:05:52.729Z,5.73
2018-04-10T19:08:20.232Z,8.77
2018-04-10T19:10:48.482Z,8.37
2018-04-10T19:13:15.985Z,7.53
2018-04-10T19:15:43.463Z,9.17
2018-04-10T19:18:10.944Z,9.47
2018-04-10T19:20:38.412Z,9.27
2018-04-10T19:23:05.874Z,8.87
2018-04-10T19:25:33.373Z,8.77
2018-04-10T19:28:00.849Z,8.23
2018-04-10T19:30:28.371Z,8.03
2018-04-10T19:32:56.590Z,7.83
2018-04-10T19:35:24.095Z,6.77
2018-04-10T19:37:52.340Z,7.47
2018-04-10T19:40:19.843Z,7.20
2018-04-10T19:42:48.112Z,9.53
2018-04-10T19:45:16.393Z,7.27
2018-04-10T19:47:44.693Z,7.77
2018-04-10T19:50:12.192Z,6.93
2018-04-10T19:52:39.671Z,6.97
2018-04-10T19:55:07.966Z,7.67
2018-04-10T19:57:35.434Z,7.63
2018-04-10T20:00:02.951Z,8.70
2018-04-10T20:02:32.629Z,9.00
2018-04-10T20:05:00.204Z,8.40
2018-04-10T20:07:27.771Z,8.67
2018-04-10T20:09:56.010Z,5.40
2018-04-10T20:12:23.490Z,5.90
2018-04-10T20:14:50.964Z,5.50
2018-04-10T20:17:18.535Z,6.27
2018-04-10T20:19:46.036Z,7.73
2018-04-10T20:22:13.513Z,6.80
2018-04-10T20:24:40.991Z,7.50
2018-04-10T20:27:08.636Z,9.03
2018-04-10T20:29:36.101Z,23.93
2018-04-10T20:32:03.560Z,12.10
2018-04-10T20:34:31.011Z,7.83
2018-04-10T20:36:58.460Z,6.77
2018-04-10T20:39:25.994Z,6.97
2018-04-10T20:41:53.434Z,6.60
2018-04-10T20:44:20.907Z,7.10
2018-04-10T20:46:48.375Z,6.80
2018-04-10T20:49:15.818Z,7.10
2018-04-10T20:51:43.331Z,7.07
2018-04-10T20:54:10.807Z,7.00
2018-04-10T20:56:38.291Z,6.27
2018-04-10T20:59:05.759Z,7.67
2018-04-10T21:01:33.204Z,6.80
2018-04-10T21:04:00.695Z,7.17
2018-04-10T21:06:28.171Z,7.20
2018-04-10T21:08:55.638Z,6.93
2018-04-10T21:11:23.089Z,8.10
2018-04-10T21:13:50.559Z,7.80
2018-04-10T21:16:18.821Z,7.90
2018-04-10T21:18:46.297Z,6.80
2018-04-10T21:21:14.528Z,6.87
2018-04-10T21:23:41.980Z,4.40
2018-04-10T21:26:09.513Z,3.70
2018-04-10T21:28:36.968Z,4.00
2018-04-10T21:31:04.409Z,3.47
2018-04-10T21:33:32.647Z,3.70
2018-04-10T21:36:00.189Z,3.47
2018-04-10T21:38:27.656Z,3.13
2018-04-10T21:40:55.174Z,3.43
2018-04-10T21:43:28.403Z,3.63
2018-04-10T21:45:55.858Z,3.43
2018-04-10T21:48:23.410Z,3.57
2018-04-10T21:50:51.060Z,3.10
2018-04-10T21:53:18.522Z,3.70
2018-04-10T21:55:45.996Z,3.60
2018-04-10T21:58:13.463Z,4.57
2018-04-10T22:00:41.031Z,4.20
2018-04-10T22:03:08.636Z,3.20
2018-04-10T22:05:36.119Z,3.63
2018-04-10T22:08:03.554Z,3.07
2018-04-10T22:10:31.011Z,2.97
2018-04-10T22:12:58.478Z,2.97
2018-04-10T22:15:25.922Z,2.87
2018-04-10T22:17:53.420Z,2.47
2018-04-10T22:20:20.856Z,2.40
2018-04-10T22:22:48.317Z,2.80
2018-04-10T22:25:15.788Z,2.97
2018-04-10T22:27:43.356Z,3.03
2018-04-10T22:30:10.797Z,2.67
2018-04-10T22:32:40.355Z,2.90
2018-04-10T22:35:07.850Z,2.10
2018-04-10T22:37:35.379Z,2.63
2018-04-10T22:40:02.853Z,2.60
2018-04-10T22:42:30.304Z,3.20
2018-04-10T22:44:57.755Z,2.77
2018-04-10T22:47:25.195Z,2.77
2018-04-10T22:49:52.674Z,2.60
2018-04-10T22:52:20.224Z,2.87
2018-04-10T22:54:47.689Z,2.50
2018-04-10T22:57:15.239Z,3.27
2018-04-10T22:59:42.684Z,2.73
2018-04-10T23:02:10.142Z,2.67
2018-04-10T23:04:37.595Z,3.33
2018-04-10T23:07:05.059Z,4.00
2018-04-10T23:09:32.546Z,3.70
2018-04-10T23:11:59.997Z,3.87
2018-04-10T23:14:27.692Z,4.20
2018-04-10T23:16:55.944Z,3.50
2018-04-10T23:19:23.419Z,3.77
2018-04-10T23:21:50.966Z,3.40
2018-04-10T23:24:18.519Z,3.90
2018-04-10T23:26:45.985Z,3.80
2018-04-10T23:29:13.510Z,4.70
2018-04-10T23:31:41.027Z,5.17
2018-04-10T23:34:08.497Z,4.83
2018-04-10T23:36:36.737Z,3.93
2018-04-10T23:39:04.205Z,4.30
2018-04-10T23:41:32.822Z,3.40
2018-04-10T23:44:00.271Z,3.30
2018-04-10T23:46:28.478Z,3.27
2018-04-10T23:48:55.941Z,3.13
2018-04-10T23:51:23.403Z,3.50
2018-04-10T23:53:50.880Z,3.50
2018-04-10T23:56:18.436Z,3.43
2018-04-10T23:58:45.910Z,3.77
